Time;durP1;ratioP1;P1;durP2;ratioP2;P2;SDS_P1;SDS_P2;PMS_P1;PMS_P2;Temp;Humidity;BMP_temperature;BMP_pressure;BME280_temperature;BME280_humidity;BME280_pressure;Samples;Min_cycle;Max_cycle;Signal;HPM_P1;HPM_P2
2022/04/26 03:36:18;;;;;;;8.27;6.80;;;;;;;7.26;100.00;97227.81;4999621;28;20055;-70
2022/04/26 03:38:47;;;;;;;8.50;7.28;;;;;;;7.32;100.00;97229.34;4991905;28;20475;-71
2022/04/26 03:41:15;;;;;;;8.65;6.85;;;;;;;7.40;100.00;97223.91;4976346;28;20066;-71
2022/04/26 03:43:43;;;;;;;12.20;10.95;;;;;;;7.13;100.00;97229.16;4995340;28;20046;-71
2022/04/26 03:46:10;;;;;;;9.65;8.38;;;;;;;7.24;100.00;97232.19;4990253;28;20053;-71
2022/04/26 03:48:38;;;;;;;12.55;11.25;;;;;;;7.09;100.00;97227.56;4993829;28;20160;-71
2022/04/26 03:51:05;;;;;;;11.80;10.55;;;;;;;6.96;100.00;97229.72;4997915;28;20057;-71
2022/04/26 03:53:34;;;;;;;24.58;18.67;;;;;;;6.78;100.00;97227.78;4990169;28;20200;-71
2022/04/26 03:56:01;;;;;;;13.68;12.25;;;;;;;6.91;100.00;97226.44;4991949;28;20722;-71
2022/04/26 03:58:29;;;;;;;14.07;11.57;;;;;;;7.05;100.00;97229.41;4991209;28;20050;-71
2022/04/26 04:00:57;;;;;;;13.00;11.65;;;;;;;7.10;100.00;97235.25;4988524;28;20104;-71
2022/04/26 04:03:25;;;;;;;14.10;11.75;;;;;;;7.17;100.00;97243.63;4992033;28;20089;-71
2022/04/26 04:05:53;;;;;;;11.65;9.02;;;;;;;7.13;100.00;97242.88;4991935;28;20050;-71
2022/04/26 04:08:20;;;;;;;15.45;13.23;;;;;;;6.94;100.00;97241.84;4994789;28;20058;-71
2022/04/26 04:10:47;;;;;;;17.10;15.05;;;;;;;7.00;100.00;97241.63;4996377;28;20143;-71
2022/04/26 04:13:16;;;;;;;11.73;10.43;;;;;;;7.12;100.00;97248.13;4993187;28;20097;-71
2022/04/26 04:15:44;;;;;;;10.77;9.55;;;;;;;7.23;100.00;97258.06;4995725;28;20058;-71
2022/04/26 04:20:58;;;;;;;14.60;12.35;;;;;;;6.88;100.00;97245.44;4998906;28;20093;-71
2022/04/26 04:23:26;;;;;;;12.35;10.00;;;;;;;7.10;100.00;97249.91;4994694;28;20054;-71
2022/04/26 04:25:53;;;;;;;11.15;9.88;;;;;;;7.33;100.00;97249.94;4991202;28;20073;-71
2022/04/26 04:28:20;;;;;;;11.95;8.85;;;;;;;7.44;100.00;97239.25;4993116;28;20060;-71
2022/04/26 04:30:48;;;;;;;10.40;9.25;;;;;;;7.26;100.00;97251.06;4990160;28;20134;-71
2022/04/26 04:33:15;;;;;;;8.95;7.82;;;;;;;7.36;100.00;97255.91;4993717;28;20169;-71
2022/04/26 04:35:43;;;;;;;16.75;14.80;;;;;;;6.98;100.00;97261.50;4990012;28;20137;-71
2022/04/26 04:38:10;;;;;;;16.65;14.82;;;;;;;6.89;100.00;97270.38;4998696;28;20590;-71
2022/04/26 04:40:37;;;;;;;17.55;15.73;;;;;;;6.58;100.00;97272.25;4998414;28;20128;-71
2022/04/26 04:43:06;;;;;;;18.00;15.48;;;;;;;6.61;100.00;97278.13;4990129;28;20050;-71
2022/04/26 04:45:33;;;;;;;13.30;11.65;;;;;;;6.91;100.00;97280.63;4995277;28;20129;-71
2022/04/26 04:48:00;;;;;;;15.05;13.45;;;;;;;6.98;100.00;97281.25;4990109;28;20057;-71
2022/04/26 04:50:28;;;;;;;12.43;10.68;;;;;;;7.12;100.00;97290.25;4992480;28;20583;-71
2022/04/26 04:52:56;;;;;;;11.20;9.65;;;;;;;7.34;100.00;97289.50;4989265;28;20082;-71
2022/04/26 04:55:23;;;;;;;14.93;13.23;;;;;;;6.82;100.00;97284.38;4993295;28;20092;-71
2022/04/26 04:57:51;;;;;;;15.70;12.20;;;;;;;6.87;100.00;97291.97;4986351;28;20085;-71
2022/04/26 05:00:18;;;;;;;14.07;11.13;;;;;;;6.96;100.00;97299.41;4996947;28;20192;-71
2022/04/26 05:02:46;;;;;;;16.13;12.77;;;;;;;6.95;100.00;97297.69;4992869;28;20471;-71
2022/04/26 05:05:13;;;;;;;15.00;10.90;;;;;;;6.87;100.00;97302.28;5004850;28;20164;-71
2022/04/26 05:07:41;;;;;;;11.65;9.10;;;;;;;7.13;100.00;97302.25;4999776;28;20056;-71
2022/04/26 05:10:09;;;;;;;14.65;11.85;;;;;;;6.97;100.00;97305.41;4981571;28;20078;-71
2022/04/26 05:12:37;;;;;;;16.13;13.52;;;;;;;7.10;100.00;97309.28;4999584;28;20566;-71
2022/04/26 05:15:04;;;;;;;14.30;11.35;;;;;;;7.38;100.00;97309.19;4995100;28;20582;-71
2022/04/26 05:17:32;;;;;;;12.30;9.57;;;;;;;7.67;100.00;97305.59;4994430;28;20042;-71
2022/04/26 05:20:00;;;;;;;17.92;13.05;;;;;;;7.56;100.00;97306.88;4991420;28;20076;-71
2022/04/26 05:22:28;;;;;;;16.83;12.63;;;;;;;7.52;100.00;97306.13;4981068;28;20086;-71
2022/04/26 05:24:58;;;;;;;11.77;9.82;;;;;;;7.41;100.00;97303.94;4996373;28;20047;-71
2022/04/26 05:27:27;;;;;;;10.40;8.43;;;;;;;7.32;100.00;97299.03;4985545;28;20551;-71
2022/04/26 05:29:56;;;;;;;10.18;8.13;;;;;;;7.72;100.00;97293.34;4988331;28;20154;-71
2022/04/26 05:32:26;;;;;;;13.65;10.63;;;;;;;7.78;100.00;97291.44;4991110;28;20564;-70
2022/04/26 05:34:58;;;;;;;11.32;8.63;;;;;;;8.13;100.00;97283.22;4973390;28;20144;-70
2022/04/26 05:37:26;;;;;;;9.43;7.73;;;;;;;8.45;100.00;97282.94;4994162;28;20073;-70
2022/04/26 05:39:55;;;;;;;10.52;9.05;;;;;;;8.29;100.00;97278.31;4991521;28;20393;-70
2022/04/26 05:42:23;;;;;;;9.15;7.60;;;;;;;8.32;100.00;97265.28;4983248;28;20490;-69
2022/04/26 05:44:50;;;;;;;14.60;11.35;;;;;;;8.02;100.00;97274.19;4987262;28;20100;-71
2022/04/26 05:47:18;;;;;;;13.80;10.55;;;;;;;8.03;100.00;97270.69;4998321;28;20056;-72
2022/04/26 05:49:45;;;;;;;10.48;8.45;;;;;;;8.40;100.00;97265.03;4997205;28;20045;-71
2022/04/26 05:52:15;;;;;;;9.35;7.90;;;;;;;8.57;100.00;97270.34;4988025;28;20092;-71
2022/04/26 05:54:43;;;;;;;10.15;7.90;;;;;;;8.65;100.00;97259.72;4986864;28;20162;-71
2022/04/26 05:57:10;;;;;;;9.65;8.40;;;;;;;8.50;100.00;97261.16;4993639;28;20050;-71
2022/04/26 05:59:38;;;;;;;13.23;8.80;;;;;;;8.27;100.00;97266.38;4995848;28;20489;-71
2022/04/26 06:02:05;;;;;;;11.82;8.90;;;;;;;8.31;100.00;97267.94;4996547;28;20078;-71
2022/04/26 06:04:32;;;;;;;9.05;7.25;;;;;;;8.25;100.00;97270.75;4991903;28;20165;-71
2022/04/26 06:07:00;;;;;;;10.73;7.53;;;;;;;8.18;100.00;97262.38;4999546;28;20076;-71
2022/04/26 06:09:28;;;;;;;10.27;7.10;;;;;;;8.20;100.00;97270.91;4995296;28;20077;-71
2022/04/26 06:11:57;;;;;;;8.38;6.65;;;;;;;8.26;100.00;97282.78;4992368;28;20081;-71
2022/04/26 06:14:25;;;;;;;9.65;7.05;;;;;;;8.30;100.00;97284.34;4984056;28;20139;-71
2022/04/26 06:16:52;;;;;;;9.25;7.32;;;;;;;8.30;100.00;97281.75;4999295;28;20485;-71
2022/04/26 06:19:19;;;;;;;9.88;7.53;;;;;;;8.15;100.00;97290.94;4990682;28;20137;-71
2022/04/26 06:21:47;;;;;;;9.32;7.00;;;;;;;8.34;100.00;97291.91;4999388;28;20046;-71
2022/04/26 06:24:14;;;;;;;11.77;8.10;;;;;;;8.41;100.00;97287.38;4994005;28;20113;-71
2022/04/26 06:26:45;;;;;;;10.23;8.10;;;;;;;8.58;100.00;97299.69;4996268;28;20126;-71
2022/04/26 06:29:13;;;;;;;10.05;8.63;;;;;;;8.45;100.00;97293.28;4998958;28;20108;-71
2022/04/26 06:31:40;;;;;;;13.43;8.45;;;;;;;8.48;100.00;97286.25;4988764;28;20134;-70
2022/04/26 06:34:08;;;;;;;10.80;7.82;;;;;;;8.63;100.00;97290.00;4989142;28;20089;-71
2022/04/26 06:36:35;;;;;;;9.75;6.35;;;;;;;8.74;100.00;97290.41;4973253;28;20082;-71
2022/04/26 06:39:02;;;;;;;9.63;6.82;;;;;;;9.07;100.00;97291.69;4985827;28;20054;-71
2022/04/26 06:41:31;;;;;;;8.18;6.13;;;;;;;9.35;100.00;97289.66;4985476;28;20061;-71
2022/04/26 06:43:58;;;;;;;11.20;8.02;;;;;;;9.26;100.00;97291.75;4986901;28;20057;-71
2022/04/26 06:46:25;;;;;;;9.57;7.70;;;;;;;9.08;100.00;97286.47;4984676;28;21198;-71
2022/04/26 06:48:57;;;;;;;10.20;7.78;;;;;;;9.06;100.00;97288.25;4984329;28;20074;-71
2022/04/26 06:51:30;;;;;;;9.27;7.93;;;;;;;8.97;100.00;97293.81;4986453;28;20157;-71
2022/04/26 06:53:58;;;;;;;9.10;7.55;;;;;;;9.36;100.00;97293.06;4982998;28;20074;-71
2022/04/26 06:56:25;;;;;;;11.23;8.05;;;;;;;9.28;100.00;97290.78;4986625;28;20050;-71
2022/04/26 06:58:53;;;;;;;10.05;8.27;;;;;;;9.41;100.00;97291.97;4986121;28;20046;-71
2022/04/26 07:01:21;;;;;;;12.80;8.25;;;;;;;9.50;100.00;97292.47;4983761;28;20049;-71
2022/04/26 07:04:06;;;;;;;11.98;9.60;;;;;;;9.62;100.00;97294.53;4983417;28;20189;-70
2022/04/26 07:06:34;;;;;;;10.85;8.07;;;;;;;9.62;100.00;97291.94;4988420;28;20057;-70
2022/04/26 07:09:03;;;;;;;10.93;8.70;;;;;;;10.07;100.00;97295.19;4985522;28;20078;-70
2022/04/26 07:11:31;;;;;;;10.82;9.13;;;;;;;9.89;100.00;97295.09;4982723;28;20065;-70
2022/04/26 07:13:58;;;;;;;10.18;8.52;;;;;;;9.57;100.00;97297.31;4989243;28;20129;-70
2022/04/26 07:16:26;;;;;;;10.40;7.97;;;;;;;9.80;100.00;97298.09;4986817;28;20073;-70
2022/04/26 07:18:53;;;;;;;14.10;9.07;;;;;;;9.78;100.00;97286.94;4987626;28;20072;-70
2022/04/26 07:21:20;;;;;;;9.98;8.25;;;;;;;9.77;100.00;97299.06;4980861;28;20126;-70
2022/04/26 07:23:49;;;;;;;11.45;9.35;;;;;;;10.13;100.00;97302.69;4983906;28;20132;-70
2022/04/26 07:26:17;;;;;;;10.27;8.30;;;;;;;10.17;100.00;97296.44;4983080;28;20676;-70
2022/04/26 07:28:44;;;;;;;11.60;9.80;;;;;;;10.22;100.00;97284.13;4983762;28;20133;-70
2022/04/26 07:31:11;;;;;;;11.75;9.95;;;;;;;10.33;100.00;97286.22;4980714;28;20562;-70
2022/04/26 07:36:25;;;;;;;14.35;11.25;;;;;;;10.73;100.00;97284.38;4983425;28;20136;-70
2022/04/26 07:38:52;;;;;;;13.75;10.00;;;;;;;11.13;100.00;97280.69;4987570;28;20074;-70
2022/04/26 07:41:19;;;;;;;11.27;9.13;;;;;;;11.32;100.00;97284.97;4980603;28;20525;-70
2022/04/26 07:43:47;;;;;;;13.73;9.50;;;;;;;11.52;100.00;97288.22;4987406;28;20053;-70
2022/04/26 07:46:15;;;;;;;14.93;11.48;;;;;;;10.99;100.00;97281.34;4967081;28;20468;-70
2022/04/26 07:48:43;;;;;;;12.43;10.10;;;;;;;10.56;100.00;97278.22;4987680;28;20518;-70
2022/04/26 07:51:11;;;;;;;13.07;11.02;;;;;;;10.16;100.00;97285.22;4984400;28;20066;-70
2022/04/26 07:53:39;;;;;;;11.38;8.80;;;;;;;10.04;100.00;97290.97;4988160;28;20058;-70
2022/04/26 07:56:06;;;;;;;14.38;11.50;;;;;;;10.27;100.00;97292.53;4979199;28;20693;-71
2022/04/26 07:58:34;;;;;;;13.27;10.75;;;;;;;10.10;100.00;97303.66;4983831;28;20061;-70
2022/04/26 08:01:03;;;;;;;13.93;10.57;;;;;;;9.81;100.00;97303.22;4985849;28;20129;-70
2022/04/26 08:03:35;;;;;;;14.27;11.38;;;;;;;9.76;100.00;97312.06;4978276;28;20054;-70
2022/04/26 08:06:03;;;;;;;12.88;10.20;;;;;;;9.97;100.00;97307.72;4980503;28;20124;-70
2022/04/26 08:08:30;;;;;;;16.45;12.35;;;;;;;9.45;100.00;97321.19;4977360;28;20184;-70
2022/04/26 08:11:00;;;;;;;12.38;10.35;;;;;;;9.86;100.00;97331.53;4981772;28;20060;-70
2022/04/26 08:13:27;;;;;;;13.35;10.38;;;;;;;10.06;100.00;97330.66;4988625;28;20127;-70
2022/04/26 08:15:55;;;;;;;15.40;11.98;;;;;;;9.73;100.00;97338.97;4981369;28;20133;-70
2022/04/26 08:18:23;;;;;;;19.02;14.48;;;;;;;8.91;100.00;97349.25;4982676;28;20133;-70
2022/04/26 08:20:51;;;;;;;20.73;14.23;;;;;;;8.36;100.00;97359.94;4981228;28;20057;-70
2022/04/26 08:23:19;;;;;;;25.25;16.27;;;;;;;8.01;100.00;97378.50;4979940;28;20422;-70
2022/04/26 08:28:33;;;;;;;17.55;13.05;;;;;;;7.86;100.00;97392.78;4984258;28;20057;-70
2022/04/26 08:31:01;;;;;;;19.45;13.05;;;;;;;7.82;100.00;97392.03;4983737;28;20496;-70
2022/04/26 08:33:30;;;;;;;23.90;14.35;;;;;;;7.91;100.00;97402.09;4982766;28;20045;-70
2022/04/26 08:35:57;;;;;;;19.10;12.30;;;;;;;8.04;100.00;97399.91;4980583;28;20050;-70
2022/04/26 08:38:32;;;;;;;18.95;12.18;;;;;;;8.01;100.00;97412.94;4981878;28;21989;-71
2022/04/26 08:40:59;;;;;;;25.67;15.07;;;;;;;8.08;100.00;97411.81;4981135;28;20100;-71
2022/04/26 08:43:33;;;;;;;55.70;29.83;;;;;;;8.27;100.00;97421.50;4987585;28;20419;-71
2022/04/26 08:46:02;;;;;;;32.45;18.23;;;;;;;8.31;100.00;97417.91;4980171;28;20050;-71
2022/04/26 08:51:15;;;;;;;18.27;13.25;;;;;;;8.58;100.00;97427.28;4983686;28;20145;-70
2022/04/26 08:53:44;;;;;;;16.27;11.85;;;;;;;8.55;100.00;97431.72;4982135;28;20074;-70
2022/04/26 08:56:11;;;;;;;14.35;11.80;;;;;;;8.64;100.00;97438.31;4981583;28;20054;-70
2022/04/26 08:58:40;;;;;;;14.48;11.07;;;;;;;8.62;100.00;97437.50;4981764;28;20136;-70
2022/04/26 09:01:12;;;;;;;6.25;4.55;;;;;;;8.70;100.00;97431.16;4980753;28;20393;-71
2022/04/26 09:03:54;;;;;;;6.95;4.45;;;;;;;8.84;100.00;97432.38;4980415;28;20271;-70
2022/04/26 09:06:45;;;;;;;4.70;3.30;;;;;;;8.77;100.00;97421.41;4979817;28;20050;-70
2022/04/26 09:09:21;;;;;;;6.05;3.80;;;;;;;8.85;100.00;97424.56;4964409;28;20101;-71
2022/04/26 09:11:49;;;;;;;5.30;3.88;;;;;;;9.04;100.00;97416.09;4984894;28;20076;-69
2022/04/26 09:14:35;;;;;;;4.57;3.35;;;;;;;9.27;100.00;97421.19;4979092;28;20054;-70
2022/04/26 09:17:11;;;;;;;3.92;2.10;;;;;;;9.16;100.00;97415.59;4980080;28;20086;-71
2022/04/26 09:19:47;;;;;;;3.70;2.47;;;;;;;9.27;100.00;97417.78;4977176;28;20897;-71
2022/04/26 09:22:25;;;;;;;1.95;1.27;;;;;;;9.38;100.00;97416.44;4975468;28;20085;-71
2022/04/26 09:25:03;;;;;;;3.85;2.35;;;;;;;9.39;100.00;97420.69;4981776;28;20061;-71
2022/04/26 09:27:32;;;;;;;4.22;2.70;;;;;;;9.29;100.00;97419.41;4982707;28;20049;-72
2022/04/26 09:29:59;;;;;;;5.97;5.03;;;;;;;9.34;100.00;97427.81;4990450;28;20148;-71
2022/04/26 09:32:27;;;;;;;16.98;13.82;;;;;;;9.50;100.00;97427.22;4984240;28;20074;-71
2022/04/26 09:34:54;;;;;;;2.88;1.27;;;;;;;9.46;100.00;97420.47;4981974;28;20062;-72
2022/04/26 09:37:22;;;;;;;2.17;1.17;;;;;;;9.69;100.00;97419.50;4987490;28;20132;-71
2022/04/26 09:40:05;;;;;;;1.35;0.75;;;;;;;9.80;100.00;97428.53;4991962;28;20085;-71
2022/04/26 09:42:33;;;;;;;1.73;1.10;;;;;;;10.32;100.00;97419.47;4983933;28;20050;-71
2022/04/26 09:45:10;;;;;;;1.83;1.00;;;;;;;10.05;100.00;97424.91;4982318;28;20457;-71
2022/04/26 09:47:39;;;;;;;1.20;0.80;;;;;;;10.41;100.00;97411.28;4987893;28;20297;-71
2022/04/26 09:50:09;;;;;;;0.77;0.60;;;;;;;11.57;100.00;97407.56;4983436;28;20137;-70
2022/04/26 09:52:37;;;;;;;1.27;0.60;;;;;;;12.45;100.00;97401.38;4979805;28;20144;-71
2022/04/26 09:55:06;;;;;;;0.82;0.55;;;;;;;13.09;100.00;97393.56;4983341;28;20137;-70
2022/04/26 09:57:37;;;;;;;0.98;0.60;;;;;;;13.70;100.00;97387.50;4969041;28;20093;-71
2022/04/26 10:00:11;;;;;;;1.00;0.60;;;;;;;14.14;100.00;97398.84;4991012;28;20109;-70
2022/04/26 10:02:46;;;;;;;1.13;0.70;;;;;;;14.35;100.00;97394.13;4986998;28;20173;-70
2022/04/26 10:05:20;;;;;;;0.90;0.65;;;;;;;15.02;100.00;97387.34;4985524;28;20066;-70
2022/04/26 10:07:51;;;;;;;1.33;0.70;;;;;;;15.43;100.00;97389.06;4974247;28;20081;-70
2022/04/26 10:10:20;;;;;;;1.23;0.80;;;;;;;15.32;100.00;97382.88;4990115;28;20047;-70
2022/04/26 10:15:38;;;;;;;1.90;0.90;;;;;;;17.04;100.00;97382.50;4983636;28;20432;-71
2022/04/26 10:18:31;;;;;;;2.55;1.40;;;;;;;16.23;100.00;97380.31;4983775;28;20093;-71
2022/04/26 10:21:03;;;;;;;3.92;2.30;;;;;;;13.93;100.00;97398.38;4982746;28;20058;-70
2022/04/26 10:23:50;;;;;;;4.40;3.70;;;;;;;15.04;100.00;97384.66;4988676;28;20053;-70
2022/04/26 10:29:01;;;;;;;6.40;3.83;;;;;;;14.03;100.00;97394.31;4987722;28;20074;-70
2022/04/26 10:31:36;;;;;;;5.45;4.22;;;;;;;14.13;100.00;97398.03;4977457;28;20057;-70
2022/04/26 10:34:26;;;;;;;5.35;4.03;;;;;;;13.94;100.00;97400.91;4982813;28;20057;-70
2022/04/26 10:37:14;;;;;;;4.90;3.53;;;;;;;14.18;100.00;97403.81;4986781;28;20065;-71
2022/04/26 10:39:42;;;;;;;4.57;3.33;;;;;;;13.93;100.00;97406.19;4980279;28;20137;-70
2022/04/26 10:42:15;;;;;;;4.78;2.70;;;;;;;14.59;100.00;97399.66;4982974;28;20149;-70
2022/04/26 10:44:47;;;;;;;5.28;3.45;;;;;;;14.83;100.00;97402.53;4986530;28;20650;-70
2022/04/26 10:47:18;;;;;;;5.78;3.15;;;;;;;14.96;100.00;97397.34;4987822;28;20479;-70
2022/04/26 10:49:47;;;;;;;4.53;2.90;;;;;;;14.88;100.00;97400.47;4983585;28;20118;-70
2022/04/26 10:52:33;;;;;;;5.18;3.33;;;;;;;13.95;100.00;97404.34;4968534;28;20057;-70
2022/04/26 10:55:06;;;;;;;5.00;3.67;;;;;;;13.67;100.00;97413.78;4965859;28;20049;-70
2022/04/26 10:57:34;;;;;;;;;;;;;;;13.95;100.00;97412.16;4987087;28;20133;-70
2022/04/26 11:00:05;;;;;;;6.43;4.30;;;;;;;14.51;100.00;97413.16;4986227;28;20020;-71
2022/04/26 11:02:39;;;;;;;6.05;4.80;;;;;;;14.15;100.00;97418.81;4980452;28;20570;-71
2022/04/26 11:05:18;;;;;;;5.60;4.40;;;;;;;13.91;100.00;97419.34;4983424;28;20126;-72
2022/04/26 11:07:47;;;;;;;9.50;5.68;;;;;;;13.47;100.00;97414.06;4978671;28;20121;-72
2022/04/26 11:10:18;;;;;;;8.23;5.25;;;;;;;13.51;100.00;97413.81;4984367;28;20050;-70
2022/04/26 11:12:46;;;;;;;7.88;5.70;;;;;;;12.93;100.00;97415.28;4981576;28;20066;-72
2022/04/26 11:15:15;;;;;;;7.07;4.97;;;;;;;14.57;100.00;97401.50;4985561;28;20055;-72
2022/04/26 11:17:45;;;;;;;7.20;5.45;;;;;;;15.00;100.00;97391.81;4974222;28;20085;-72
2022/04/26 11:20:21;;;;;;;6.30;4.45;;;;;;;15.26;100.00;97398.03;4986675;28;20051;-72
2022/04/26 11:22:53;;;;;;;6.68;5.13;;;;;;;15.85;100.00;97397.69;4982293;28;20129;-71
2022/04/26 11:28:17;;;;;;;3.85;2.65;;;;;;;17.39;100.00;97396.63;4981292;28;20055;-70
2022/04/26 11:30:48;;;;;;;3.60;2.35;;;;;;;17.62;100.00;97397.56;4976742;28;20066;-72
2022/04/26 11:33:24;;;;;;;3.15;1.73;;;;;;;18.51;100.00;97402.19;4983606;28;20050;-71
2022/04/26 11:36:37;;;;;;;2.25;1.50;;;;;;;18.28;100.00;97405.75;4985973;28;20132;-71
2022/04/26 11:39:46;;;;;;;3.15;1.92;;;;;;;17.50;100.00;97399.31;4989660;28;20121;-71
2022/04/26 11:42:57;;;;;;;3.20;1.58;;;;;;;19.18;100.00;97397.84;4985082;28;20058;-72
2022/04/26 11:46:07;;;;;;;3.35;1.65;;;;;;;15.92;100.00;97419.06;4987658;28;20107;-72
2022/04/26 11:49:18;;;;;;;4.23;2.67;;;;;;;15.32;100.00;97422.09;5020702;28;20049;-72
2022/04/26 11:52:45;;;;;;;4.53;2.17;;;;;;;14.55;100.00;97439.94;5019508;28;20159;-72
2022/04/26 11:56:05;;;;;;;3.47;2.28;;;;;;;14.30;100.00;97443.16;5022641;28;20061;-71
2022/04/26 11:58:54;;;;;;;6.30;3.35;;;;;;;14.11;100.00;97446.88;5000515;28;20050;-71
2022/04/26 12:01:36;;;;;;;3.80;2.65;;;;;;;15.33;100.00;97436.88;4999142;28;20081;-73
2022/04/26 12:04:18;;;;;;;4.68;3.08;;;;;;;14.46;100.00;97445.69;5001806;28;20057;-70
2022/04/26 12:06:59;;;;;;;3.95;2.70;;;;;;;14.67;100.00;97441.81;5000305;28;20137;-70
2022/04/26 12:09:41;;;;;;;5.70;3.38;;;;;;;13.96;100.00;97448.63;5001465;28;20050;-70
2022/04/26 12:12:20;;;;;;;4.30;2.83;;;;;;;13.62;100.00;97441.91;5002451;28;20141;-70
2022/04/26 12:15:04;;;;;;;4.47;2.85;;;;;;;15.09;100.00;97447.09;5002230;28;20061;-71
2022/04/26 12:18:00;;;;;;;3.65;2.80;;;;;;;16.36;100.00;97448.44;4999284;28;20113;-70
2022/04/26 12:20:57;;;;;;;4.32;2.90;;;;;;;14.78;100.00;97457.69;4999488;28;20128;-71
2022/04/26 12:23:36;;;;;;;6.00;4.65;;;;;;;13.75;100.00;97455.06;4998448;28;20123;-71
2022/04/26 12:27:08;;;;;;;6.25;3.92;;;;;;;12.27;100.00;97472.59;5002590;28;20046;-71
2022/04/26 12:29:46;;;;;;;6.43;3.15;;;;;;;11.90;100.00;97477.88;4993955;28;20056;-71
2022/04/26 12:32:18;;;;;;;5.65;3.65;;;;;;;11.64;100.00;97486.09;5010719;28;20580;-71
2022/04/26 12:34:52;;;;;;;8.30;4.25;;;;;;;10.70;100.00;97494.75;4997917;28;20423;-71
2022/04/26 12:37:25;;;;;;;6.03;4.75;;;;;;;10.61;100.00;97504.66;4998164;28;20085;-70
2022/04/26 12:40:06;;;;;;;10.85;6.35;;;;;;;10.52;100.00;97506.81;5000150;28;20055;-71
2022/04/26 12:42:35;;;;;;;9.27;4.70;;;;;;;10.76;100.00;97510.91;5001881;28;20141;-70
2022/04/26 12:45:05;;;;;;;6.57;5.25;;;;;;;11.00;100.00;97518.53;4998808;28;20116;-70
2022/04/26 12:50:28;;;;;;;6.05;5.05;;;;;;;11.60;100.00;97506.19;4997421;28;20101;-72
2022/04/26 12:53:06;;;;;;;4.93;4.40;;;;;;;12.55;100.00;97492.84;5012483;28;20053;-70
2022/04/26 12:56:17;;;;;;;6.25;4.93;;;;;;;13.63;100.00;97487.91;4993402;28;22566;-70
2022/04/26 12:58:48;;;;;;;6.40;5.30;;;;;;;13.93;100.00;97479.25;4990629;28;20156;-70
2022/04/26 13:01:17;;;;;;;6.40;4.40;;;;;;;14.28;100.00;97485.03;4997753;28;20060;-71
2022/04/26 13:03:46;;;;;;;7.50;5.47;;;;;;;14.36;100.00;97480.19;4997861;28;20081;-71
2022/04/26 13:06:21;;;;;;;6.95;5.65;;;;;;;13.67;100.00;97476.38;5002583;28;20049;-70
2022/04/26 13:09:12;;;;;;;5.57;4.75;;;;;;;14.76;100.00;97475.22;4999304;28;20061;-71
2022/04/26 13:11:40;;;;;;;6.47;5.13;;;;;;;14.29;100.00;97478.03;4998610;28;20063;-70
2022/04/26 13:14:08;;;;;;;6.45;4.72;;;;;;;14.39;100.00;97479.16;4995795;28;20148;-71
2022/04/26 13:17:05;;;;;;;5.63;3.97;;;;;;;15.44;100.00;97477.09;4992637;28;20060;-70
2022/04/26 13:19:35;;;;;;;4.38;3.88;;;;;;;15.44;100.00;97477.09;4997188;28;20153;-70
2022/04/26 13:22:04;;;;;;;4.88;3.90;;;;;;;15.94;100.00;97471.28;4995902;28;20050;-70
2022/04/26 13:24:32;;;;;;;6.03;4.35;;;;;;;15.64;100.00;97467.09;4998265;28;20053;-70
2022/04/26 13:27:02;;;;;;;5.53;4.13;;;;;;;15.36;100.00;97468.88;4994012;28;20077;-69
2022/04/26 13:29:30;;;;;;;5.68;4.38;;;;;;;14.97;100.00;97473.06;4999993;28;20137;-70
2022/04/26 13:31:58;;;;;;;5.18;3.83;;;;;;;14.85;100.00;97476.44;4998941;28;20539;-70
2022/04/26 13:34:27;;;;;;;6.35;4.72;;;;;;;14.84;100.00;97470.34;5000065;28;20136;-70
2022/04/26 13:37:12;;;;;;;4.95;4.03;;;;;;;15.03;100.00;97480.53;5001080;28;20058;-71
2022/04/26 13:39:40;;;;;;;5.93;4.10;;;;;;;15.38;100.00;97460.94;4998784;28;20665;-71
2022/04/26 13:42:10;;;;;;;4.95;3.53;;;;;;;15.60;100.00;97466.47;4996510;28;20137;-71
2022/04/26 13:44:37;;;;;;;5.50;3.67;;;17.20;99.90;;;15.88;100.00;97462.91;4997373;28;20062;-70
2022/04/26 13:47:06;;;;;;;6.30;4.25;;;17.90;99.90;;;15.44;100.00;97458.78;4999229;28;20056;-70
2022/04/26 13:49:34;;;;;;;5.70;3.17;;;17.50;99.90;;;15.92;100.00;97463.56;4999799;28;20073;-70
2022/04/26 13:52:03;;;;;;;6.03;2.97;;;17.90;99.90;;;15.96;100.00;97469.41;5001497;28;20496;-70
2022/04/26 13:54:30;;;;;;;2.95;2.47;;;18.00;99.90;;;15.41;100.00;97460.72;4999204;28;20046;-70
2022/04/26 13:56:58;;;;;;;3.90;2.60;;;18.00;99.90;;;16.14;100.00;97460.34;5000919;28;20116;-70
2022/04/26 13:59:25;;;;;;;4.93;4.05;;;18.10;99.90;;;16.29;100.00;97461.09;4999225;28;20168;-70
2022/04/26 14:01:54;;;;;;;6.13;3.60;;;;;;;15.93;100.00;97462.59;4999549;28;20132;-70
2022/04/26 14:04:22;;;;;;;9.07;5.68;;;18.70;99.90;;;15.06;100.00;97471.66;4999415;28;20054;-70
2022/04/26 14:06:50;;;;;;;8.93;7.20;;;;;;;14.43;100.00;97478.88;4999254;28;20082;-70
2022/04/26 14:09:18;;;;;;;4.70;4.10;;;;;;;14.31;100.00;97477.03;5000924;28;20046;-70
2022/04/26 14:11:48;;;;;;;19.90;14.73;;;16.40;99.90;;;13.38;100.00;97473.63;5017105;28;20140;-70
2022/04/26 14:22:43;;;;;;;7.38;5.20;;;;;;;11.69;100.00;97512.72;5004851;28;20082;-70
2022/04/26 14:25:14;;;;;;;13.70;11.93;;;;;;;11.43;100.00;97524.34;5005480;28;20093;-70
2022/04/26 14:27:52;;;;;;;6.07;5.25;;;;;;;10.98;100.00;97539.38;5016359;28;20057;-71
2022/04/26 14:30:25;;;;;;;6.97;5.10;;;;;;;11.01;100.00;97551.38;5004153;28;20132;-70
2022/04/26 14:33:33;;;;;;;5.97;4.78;;;;;;;11.06;100.00;97557.19;5002204;28;20060;-70
2022/04/26 14:39:31;;;;;;;7.85;5.13;;;;;;;10.15;100.00;97574.03;5022209;28;20068;-70
2022/04/26 14:41:58;;;;;;;5.57;4.75;;;;;;;9.69;100.00;97591.41;5021960;28;20049;-70
2022/04/26 14:44:25;;;;;;;5.68;4.55;;;;;;;9.17;100.00;97614.13;5024832;28;20861;-70
2022/04/26 14:46:53;;;;;;;5.78;4.53;;;;;;;9.23;100.00;97619.06;5021227;28;20125;-71
2022/04/26 14:49:20;;;;;;;5.40;4.50;;;;;;;9.27;100.00;97619.81;5020853;28;20117;-71
2022/04/26 14:51:48;;;;;;;3.65;2.10;;;;;;;9.04;100.00;97629.25;5020145;28;20072;-71
2022/04/26 14:54:15;;;;;;;2.88;1.70;;;;;;;8.98;100.00;97630.28;5018930;28;20065;-72
2022/04/26 14:56:42;;;;;;;3.35;2.33;;;;;;;9.05;100.00;97632.66;5020895;28;20068;-71
2022/04/26 14:59:31;;;;;;;5.28;2.10;;;;;;;9.23;100.00;97637.19;5022474;28;20052;-71
2022/04/26 15:01:58;;;;;;;2.00;1.25;;;;;;;9.24;100.00;97633.72;5016999;28;20057;-71
2022/04/26 15:04:26;;;;;;;2.80;1.38;;;;;;;9.18;100.00;97639.94;5017946;28;20065;-71
2022/04/26 15:06:54;;;;;;;3.97;1.58;;;;;;;9.33;100.00;97645.47;5002960;28;20076;-71
2022/04/26 15:17:40;;;;;;;2.28;1.30;;;;;;;9.35;100.00;97641.94;5018919;28;20542;-71
2022/04/26 15:20:10;;;;;;;2.67;1.23;;;;;;;9.44;100.00;97643.31;5019666;28;20049;-72
2022/04/26 15:22:38;;;;;;;3.45;1.55;;;;;;;9.36;100.00;97642.78;5017630;28;20061;-71
2022/04/26 15:25:07;;;;;;;2.72;1.10;;;;;;;9.32;100.00;97636.84;5019188;28;20064;-72
2022/04/26 15:27:38;;;;;;;3.05;2.15;;;;;;;9.32;100.00;97643.78;5020686;28;20153;-71
2022/04/26 15:30:07;;;;;;;2.15;1.20;;;;;;;9.19;100.00;97640.78;5019195;28;20053;-72
2022/04/26 15:32:35;;;;;;;5.90;4.28;;;;;;;9.48;100.00;97637.13;5019552;28;20069;-71
2022/04/26 15:35:03;;;;;;;2.33;1.30;;;;;;;9.23;100.00;97642.38;5019975;28;20504;-71
2022/04/26 15:37:34;;;;;;;5.10;4.60;;;;;;;9.42;100.00;97643.41;5020408;28;20144;-71
2022/04/26 15:40:02;;;;;;;5.05;3.38;;;;;;;9.40;100.00;97646.94;5021559;28;20042;-71
2022/04/26 15:42:32;;;;;;;3.13;1.52;;;;;;;9.47;100.00;97645.81;5017461;28;20507;-71
2022/04/26 15:45:00;;;;;;;6.43;4.22;;;;;;;9.36;100.00;97642.78;5019365;28;20053;-70
2022/04/26 15:47:29;;;;;;;3.10;1.63;;;;;;;9.78;100.00;97637.75;5018086;28;20136;-72
2022/04/26 15:49:57;;;;;;;5.18;4.68;;;;;;;9.55;100.00;97635.16;5020249;28;20053;-72
2022/04/26 15:52:25;;;;;;;2.80;1.50;;;;;;;10.08;100.00;97633.97;5016226;28;20081;-70
2022/04/26 15:54:53;;;;;;;4.38;1.52;;;;;;;10.15;100.00;97638.88;5015664;28;20301;-70
2022/04/26 15:57:21;;;;;;;5.20;2.20;;;;;;;10.41;100.00;97635.25;5014982;28;20486;-70
2022/04/26 15:59:48;;;;;;;1.90;0.90;;;;;;;10.23;100.00;97629.03;5018338;28;20546;-71
2022/04/26 16:02:16;;;;;;;2.15;1.00;;;;;;;9.84;100.00;97634.06;5016952;28;20140;-71